Time;durP1;ratioP1;P1;durP2;ratioP2;P2;SDS_P1;SDS_P2;PMS_P1;PMS_P2;Temp;Humidity;BMP_temperature;BMP_pressure;BME280_temperature;BME280_humidity;BME280_pressure;Samples;Min_cycle;Max_cycle;Signal;HPM_P1;HPM_P2
2022/03/22 00:00:06;;;;;;;19.23;15.23;;;3.10;99.90;;;;;;5046638;28;20503;-81
2022/03/22 00:02:41;;;;;;;17.63;14.57;;;3.00;99.90;;;;;;5067217;28;20493;-79
2022/03/22 00:05:08;;;;;;;18.27;14.63;;;3.10;99.90;;;;;;5068194;28;20447;-80
2022/03/22 00:07:35;;;;;;;18.30;15.47;;;3.00;99.90;;;;;;5067747;28;20434;-81
2022/03/22 00:10:03;;;;;;;17.30;15.50;;;3.00;99.90;;;;;;5054852;28;20461;-82
2022/03/22 00:12:30;;;;;;;21.93;16.70;;;2.90;99.90;;;;;;5036325;28;20435;-79
2022/03/22 00:14:58;;;;;;;21.33;16.90;;;2.90;99.90;;;;;;5066197;28;20430;-79
2022/03/22 00:17:25;;;;;;;17.67;15.73;;;2.90;99.90;;;;;;5051098;28;20467;-80
2022/03/22 00:19:54;;;;;;;17.07;14.83;;;2.80;99.90;;;;;;5068200;28;20536;-80
2022/03/22 00:22:21;;;;;;;19.17;16.50;;;2.60;99.90;;;;;;5067805;28;20434;-79
2022/03/22 00:24:48;;;;;;;19.90;17.00;;;2.60;99.90;;;;;;5065796;28;20810;-81
2022/03/22 00:27:14;;;;;;;18.33;15.73;;;2.60;99.90;;;;;;5061237;28;20961;-79
2022/03/22 00:29:41;;;;;;;18.40;15.87;;;2.50;99.90;;;;;;5053848;28;20441;-81
2022/03/22 00:32:08;;;;;;;17.50;15.13;;;2.50;99.90;;;;;;5066279;28;20465;-81
2022/03/22 00:34:44;;;;;;;17.80;15.57;;;2.40;99.90;;;;;;5050846;28;20444;-82
2022/03/22 00:37:14;;;;;;;19.63;16.83;;;2.40;99.90;;;;;;5066843;28;20457;-79
2022/03/22 00:39:42;;;;;;;19.07;16.17;;;2.30;99.90;;;;;;5066359;28;20473;-78
2022/03/22 00:42:09;;;;;;;16.70;14.63;;;2.30;99.90;;;;;;5049857;28;20479;-81
2022/03/22 00:44:37;;;;;;;23.47;18.47;;;2.30;99.90;;;;;;5046909;28;20449;-81
2022/03/22 00:47:04;;;;;;;25.23;17.13;;;2.30;99.90;;;;;;5071099;28;20442;-81
2022/03/22 00:49:32;;;;;;;23.53;18.47;;;2.40;99.90;;;;;;5068271;28;20443;-81
2022/03/22 00:52:01;;;;;;;26.60;19.10;;;2.30;99.90;;;;;;5048017;28;20566;-81
2022/03/22 00:54:29;;;;;;;23.23;18.83;;;2.40;99.90;;;;;;5063313;28;20458;-79
2022/03/22 00:56:56;;;;;;;23.77;18.97;;;2.40;99.90;;;;;;5048923;28;20446;-80
2022/03/22 01:02:08;;;;;;;26.30;18.20;;;2.40;99.90;;;;;;5053373;28;20465;-80
2022/03/22 01:04:35;;;;;;;25.70;18.53;;;2.40;99.90;;;;;;5070593;28;20440;-79
2022/03/22 01:07:02;;;;;;;23.03;17.90;;;2.50;99.90;;;;;;5052276;28;20453;-81
2022/03/22 01:09:31;;;;;;;20.63;16.60;;;2.50;99.90;;;;;;5068936;28;20431;-80
2022/03/22 01:11:58;;;;;;;22.57;16.57;;;2.50;99.90;;;;;;5069964;28;20511;-81
2022/03/22 01:14:27;;;;;;;20.33;16.63;;;2.50;99.90;;;;;;5065796;28;20500;-83
2022/03/22 01:16:56;;;;;;;25.00;18.83;;;2.50;99.90;;;;;;5065490;28;20432;-81
2022/03/22 01:19:23;;;;;;;20.53;16.50;;;2.50;99.90;;;;;;5070024;28;20436;-79
2022/03/22 01:21:51;;;;;;;20.43;17.10;;;2.50;99.90;;;;;;5048748;28;20458;-80
2022/03/22 01:24:20;;;;;;;21.67;17.93;;;2.50;99.90;;;;;;5051618;28;20445;-82
2022/03/22 01:26:48;;;;;;;25.13;19.10;;;2.60;99.90;;;;;;5049429;28;20451;-80
2022/03/22 01:29:15;;;;;;;22.80;17.77;;;2.60;99.90;;;;;;5061043;28;20433;-78
2022/03/22 01:31:42;;;;;;;21.93;17.13;;;2.60;99.90;;;;;;5078765;28;20476;-78
2022/03/22 01:34:09;;;;;;;19.90;16.93;;;2.60;99.90;;;;;;5057149;28;20459;-82
2022/03/22 01:36:36;;;;;;;20.40;16.73;;;2.50;99.90;;;;;;5072905;28;20445;-80
2022/03/22 01:39:03;;;;;;;17.03;15.17;;;2.50;99.90;;;;;;5055765;28;20445;-81
2022/03/22 01:41:30;;;;;;;24.43;19.00;;;2.40;99.90;;;;;;5049205;28;20843;-83
2022/03/22 01:43:59;;;;;;;27.77;19.70;;;2.40;99.90;;;;;;5052886;28;20434;-80
2022/03/22 01:46:27;;;;;;;24.20;18.17;;;2.50;99.90;;;;;;5054555;28;20499;-80
2022/03/22 01:48:55;;;;;;;24.50;17.33;;;2.50;99.90;;;;;;5070661;28;20464;-81
2022/03/22 01:51:22;;;;;;;19.90;17.50;;;2.40;99.90;;;;;;5081295;22;21009;-77
2022/03/22 01:53:50;;;;;;;28.17;19.47;;;2.30;99.90;;;;;;5046543;28;20483;-77
2022/03/22 01:56:17;;;;;;;29.17;20.17;;;2.30;99.90;;;;;;5024088;28;20504;-77
2022/03/22 01:58:44;;;;;;;25.40;18.40;;;2.30;99.90;;;;;;5043379;28;20435;-77
2022/03/22 02:06:46;;;;;;;23.87;18.37;;;2.30;99.90;;;;;;5020197;28;20493;-78
2022/03/22 02:09:13;;;;;;;23.43;17.37;;;2.30;99.90;;;;;;5046129;28;20945;-78
2022/03/22 02:11:42;;;;;;;22.87;17.80;;;2.20;99.90;;;;;;5042112;28;20515;-78
2022/03/22 02:14:09;;;;;;;26.47;19.93;;;2.20;99.90;;;;;;5047387;28;20478;-77
2022/03/22 02:16:37;;;;;;;24.70;18.77;;;2.30;99.90;;;;;;5024639;28;20456;-77
2022/03/22 02:19:08;;;;;;;28.50;20.83;;;2.20;99.90;;;;;;5041400;28;20437;-77
2022/03/22 02:21:39;;;;;;;25.27;19.27;;;2.30;99.90;;;;;;5027046;28;20468;-77
2022/03/22 02:24:08;;;;;;;19.70;16.83;;;2.20;99.90;;;;;;5043481;28;20429;-78
2022/03/22 02:26:36;;;;;;;24.27;17.63;;;2.10;99.90;;;;;;5044286;28;20460;-77
2022/03/22 02:29:03;;;;;;;19.73;17.30;;;2.10;99.90;;;;;;5047701;28;20538;-77
2022/03/22 02:31:31;;;;;;;20.63;16.53;;;1.90;99.90;;;;;;5024502;28;20481;-78
2022/03/22 02:33:59;;;;;;;23.20;17.07;;;1.90;99.90;;;;;;5024085;28;20878;-78
2022/03/22 02:36:26;;;;;;;21.77;16.67;;;1.70;99.90;;;;;;5045989;28;20438;-77
2022/03/22 02:38:53;;;;;;;26.47;19.27;;;1.70;99.90;;;;;;5025129;28;20901;-77
2022/03/22 02:41:24;;;;;;;22.80;17.97;;;1.80;99.90;;;;;;5044724;28;20455;-78
2022/03/22 02:43:52;;;;;;;24.63;17.83;;;1.80;99.90;;;;;;5024529;28;20444;-77
2022/03/22 02:46:20;;;;;;;22.20;17.43;;;1.70;99.90;;;;;;5044934;28;20830;-76
2022/03/22 02:48:48;;;;;;;22.57;17.10;;;1.80;99.90;;;;;;5024972;28;20506;-77
2022/03/22 02:51:15;;;;;;;20.23;17.37;;;1.80;99.90;;;;;;5038413;28;20497;-77
2022/03/22 02:53:42;;;;;;;21.03;16.37;;;1.70;99.90;;;;;;5042482;28;20443;-77
2022/03/22 02:56:10;;;;;;;23.93;16.97;;;1.70;99.90;;;;;;5043088;28;20470;-77
2022/03/22 02:58:39;;;;;;;22.93;18.03;;;1.70;99.90;;;;;;5017038;28;20504;-77
2022/03/22 03:01:06;;;;;;;21.47;17.33;;;1.70;99.90;;;;;;5023801;28;20466;-77
2022/03/22 03:03:33;;;;;;;22.53;17.97;;;1.70;99.90;;;;;;5038140;28;20448;-76
2022/03/22 03:06:00;;;;;;;19.40;15.63;;;1.70;99.90;;;;;;5045319;28;20438;-77
2022/03/22 03:08:27;;;;;;;22.77;17.43;;;1.70;99.90;;;;;;5039980;28;20447;-77
2022/03/22 03:10:54;;;;;;;21.43;16.23;;;1.80;99.90;;;;;;5028545;28;21066;-77
2022/03/22 03:13:22;;;;;;;21.17;16.53;;;1.70;99.90;;;;;;5043754;28;20441;-77
2022/03/22 03:15:50;;;;;;;24.23;17.50;;;1.70;99.90;;;;;;5041793;28;20472;-77
2022/03/22 03:18:18;;;;;;;22.27;17.00;;;1.70;99.90;;;;;;5042045;28;20526;-77
2022/03/22 03:20:45;;;;;;;18.83;16.47;;;1.60;99.90;;;;;;5014614;28;20509;-77
2022/03/22 03:23:12;;;;;;;21.73;16.73;;;1.60;99.90;;;;;;5016988;28;20966;-77
2022/03/22 03:25:40;;;;;;;21.57;17.20;;;1.60;99.90;;;;;;5025485;28;20540;-77
2022/03/22 03:28:07;;;;;;;20.57;16.23;;;1.60;99.90;;;;;;5040833;28;20438;-77
2022/03/22 03:30:34;;;;;;;19.00;16.80;;;1.60;99.90;;;;;;5018834;28;20522;-77
2022/03/22 03:33:03;;;;;;;19.57;16.00;;;1.50;99.90;;;;;;5020975;28;20547;-76
2022/03/22 03:35:30;;;;;;;21.17;17.03;;;1.50;99.90;;;;;;5020820;28;20481;-77
2022/03/22 03:37:57;;;;;;;21.67;17.23;;;1.50;99.90;;;;;;5036968;28;20448;-76
2022/03/22 03:41:53;;;;;;;21.57;16.97;;;1.40;99.90;;;;;;5024208;28;20443;-77
2022/03/22 03:43:10;;;;;;;22.47;16.80;;;1.40;99.90;;;;;;5039644;28;20501;-77
2022/03/22 03:48:23;;;;;;;21.47;17.47;;;1.30;99.90;;;;;;5032830;28;20189;-77
2022/03/22 03:50:49;;;;;;;24.23;17.83;;;1.30;99.90;;;;;;5014366;28;20485;-77
2022/03/22 03:53:16;;;;;;;23.37;18.13;;;1.30;99.90;;;;;;5026758;28;20969;-77
2022/03/22 03:55:43;;;;;;;22.30;18.20;;;1.20;99.90;;;;;;5014858;28;20443;-77
2022/03/22 03:58:10;;;;;;;22.50;17.67;;;1.20;99.90;;;;;;5044281;28;20450;-77
2022/03/22 04:00:37;;;;;;;21.53;17.40;;;1.30;99.90;;;;;;5020879;28;20447;-77
2022/03/22 04:03:04;;;;;;;20.90;16.67;;;1.20;99.90;;;;;;5018286;28;20479;-77
2022/03/22 04:05:34;;;;;;;25.53;17.80;;;1.10;99.90;;;;;;5040392;28;20432;-76
2022/03/22 04:08:00;;;;;;;21.53;17.20;;;1.10;99.90;;;;;;5013080;28;21028;-77
2022/03/22 04:10:27;;;;;;;22.67;17.60;;;1.00;99.90;;;;;;5029147;28;20892;-78
2022/03/22 04:12:54;;;;;;;21.43;18.00;;;1.00;99.90;;;;;;5019490;28;20468;-78
2022/03/22 04:15:21;;;;;;;20.33;17.30;;;1.00;99.90;;;;;;5046757;28;20439;-75
2022/03/22 04:17:48;;;;;;;22.83;18.03;;;1.00;99.90;;;;;;5024563;28;20457;-79
2022/03/22 04:20:15;;;;;;;20.13;17.07;;;1.00;99.90;;;;;;5018411;28;20490;-79
2022/03/22 04:22:43;;;;;;;26.17;18.27;;;1.00;99.90;;;;;;5018337;28;20467;-80
2022/03/22 04:25:10;;;;;;;24.17;17.93;;;1.00;99.90;;;;;;5029651;28;20536;-77
2022/03/22 04:33:06;;;;;;;20.17;16.77;;;0.90;99.90;;;;;;5032721;28;20522;-79
2022/03/22 04:35:33;;;;;;;23.00;17.87;;;0.80;99.90;;;;;;5034433;28;20944;-77
2022/03/22 04:38:01;;;;;;;24.63;17.47;;;0.80;99.90;;;;;;5033106;28;20439;-77
2022/03/22 04:40:28;;;;;;;21.27;17.40;;;0.90;99.90;;;;;;5025429;28;20485;-79
2022/03/22 04:42:55;;;;;;;21.60;17.33;;;0.90;99.90;;;;;;5032336;28;20436;-76
2022/03/22 04:45:23;;;;;;;19.83;17.33;;;1.00;99.90;;;;;;5014405;28;20482;-76
2022/03/22 04:47:50;;;;;;;21.30;17.37;;;1.00;99.90;;;;;;5032337;28;20954;-77
2022/03/22 04:50:18;;;;;;;21.10;17.27;;;1.00;99.90;;;;;;5038856;28;20454;-77
2022/03/22 04:58:16;;;;;;;24.80;17.70;;;1.20;99.90;;;;;;5038985;28;20439;-77
2022/03/22 05:00:44;;;;;;;21.13;16.90;;;1.30;99.90;;;;;;5022793;28;20471;-78
2022/03/22 05:03:10;;;;;;;20.87;16.93;;;1.30;99.90;;;;;;5020317;28;20814;-78
2022/03/22 05:08:21;;;;;;;28.03;17.57;;;1.40;99.90;;;;;;5026995;28;20444;-78
2022/03/22 05:10:50;;;;;;;22.67;17.93;;;1.40;99.90;;;;;;5029763;28;20521;-79
2022/03/22 05:13:17;;;;;;;25.73;18.50;;;1.40;99.90;;;;;;5028576;28;20502;-78
2022/03/22 05:15:44;;;;;;;22.57;17.00;;;1.40;99.90;;;;;;5049064;28;20963;-79
2022/03/22 05:18:11;;;;;;;22.37;16.13;;;1.30;99.90;;;;;;5044369;28;20452;-78
2022/03/22 05:20:37;;;;;;;20.67;17.80;;;1.30;99.90;;;;;;5045258;28;20432;-78
2022/03/22 05:23:04;;;;;;;21.13;16.70;;;1.30;99.90;;;;;;5046416;28;20467;-78
2022/03/22 05:25:31;;;;;;;23.33;17.67;;;1.20;99.90;;;;;;5041771;28;20497;-78
2022/03/22 05:28:02;;;;;;;19.97;16.57;;;1.20;99.90;;;;;;5040746;28;20448;-78
2022/03/22 05:30:29;;;;;;;28.20;18.03;;;1.20;99.90;;;;;;5018154;28;20542;-78
2022/03/22 05:32:56;;;;;;;25.67;18.50;;;1.10;99.90;;;;;;5026098;28;20474;-78
2022/03/22 05:35:24;;;;;;;22.20;17.27;;;1.00;99.90;;;;;;5018006;28;20443;-78
2022/03/22 05:37:52;;;;;;;25.13;18.57;;;1.00;99.90;;;;;;5042708;28;20441;-78
2022/03/22 05:40:19;;;;;;;22.67;18.63;;;0.90;99.90;;;;;;5047681;28;20777;-78
2022/03/22 05:42:46;;;;;;;23.03;17.63;;;1.00;99.90;;;;;;5026799;28;20456;-78
2022/03/22 05:45:15;;;;;;;22.03;16.07;;;1.10;99.90;;;;;;5040797;28;20435;-77
2022/03/22 05:47:42;;;;;;;24.67;18.37;;;1.10;99.90;;;;;;5029214;28;20456;-80
2022/03/22 05:50:10;;;;;;;22.20;18.13;;;1.10;99.90;;;;;;5047580;28;20451;-82
2022/03/22 05:52:42;;;;;;;20.20;17.47;;;1.20;99.90;;;;;;5035579;28;20913;-82
2022/03/22 05:55:11;;;;;;;24.80;17.97;;;1.20;99.90;;;;;;5034414;28;20505;-82
2022/03/22 05:57:37;;;;;;;21.70;18.33;;;1.30;99.90;;;;;;5050965;28;20951;-82
2022/03/22 06:00:06;;;;;;;27.17;18.47;;;1.40;99.90;;;;;;5025759;28;20451;-82
2022/03/22 06:02:37;;;;;;;26.37;18.33;;;1.50;99.90;;;;;;5028915;28;20498;-82
2022/03/22 06:05:05;;;;;;;25.93;18.73;;;1.70;99.90;;;;;;5027538;28;20446;-81
2022/03/22 06:07:32;;;;;;;22.87;17.97;;;2.00;99.90;;;;;;5037133;28;20464;-82
2022/03/22 06:09:59;;;;;;;26.63;18.57;;;2.20;99.90;;;;;;5030772;28;20445;-83
2022/03/22 06:12:26;;;;;;;30.20;17.87;;;2.40;99.90;;;;;;5030582;28;20486;-82
2022/03/22 06:15:14;;;;;;;20.50;17.50;;;2.60;99.90;;;;;;5042742;28;20456;-82
2022/03/22 06:17:41;;;;;;;26.43;18.53;;;2.90;99.90;;;;;;5028945;28;20449;-82
2022/03/22 06:20:09;;;;;;;22.43;17.53;;;3.20;99.90;;;;;;5029107;28;20451;-82
2022/03/22 06:22:36;;;;;;;26.47;18.20;;;3.40;99.90;;;;;;5029910;28;20229;-82
2022/03/22 06:25:03;;;;;;;28.03;17.47;;;3.60;99.90;;;;;;5030308;28;20192;-81
2022/03/22 06:27:33;;;;;;;21.83;16.73;;;3.80;99.90;;;;;;5017048;28;20195;-82
2022/03/22 06:30:00;;;;;;;20.30;16.73;;;3.90;99.90;;;;;;5032914;28;20203;-82
2022/03/22 06:32:26;;;;;;;23.07;16.93;;;3.90;99.90;;;;;;5027051;28;20688;-82
2022/03/22 06:34:55;;;;;;;23.67;17.00;;;4.00;99.90;;;;;;5032589;28;20202;-82
2022/03/22 06:37:22;;;;;;;20.27;17.70;;;4.10;99.90;;;;;;5030721;28;20214;-82
2022/03/22 06:39:49;;;;;;;26.07;18.43;;;4.10;99.90;;;;;;5047079;28;20192;-82
2022/03/22 06:42:16;;;;;;;21.57;17.03;;;4.10;99.90;;;;;;5021955;28;20281;-80
2022/03/22 06:44:43;;;;;;;22.87;17.03;;;4.30;99.90;;;;;;5028474;28;20206;-82
2022/03/22 06:47:09;;;;;;;22.37;17.33;;;4.50;99.90;;;;;;5034038;28;20210;-82
2022/03/22 06:49:36;;;;;;;20.43;16.77;;;4.80;99.90;;;;;;5031879;28;20217;-82
2022/03/22 06:52:05;;;;;;;19.30;16.60;;;5.00;99.90;;;;;;5029623;28;20224;-82
2022/03/22 06:54:33;;;;;;;20.73;16.43;;;5.00;99.90;;;;;;5033101;28;20191;-82
2022/03/22 06:56:59;;;;;;;18.13;15.63;;;5.20;99.90;;;;;;5029844;28;20200;-82
2022/03/22 06:59:26;;;;;;;19.33;16.33;;;5.40;99.90;;;;;;5025050;28;20604;-82
2022/03/22 07:01:53;;;;;;;19.50;12.97;;;5.60;99.90;;;;;;5029111;28;20231;-82
2022/03/22 07:04:20;;;;;;;18.87;13.07;;;5.90;99.90;;;;;;5030574;28;20683;-82
2022/03/22 07:06:47;;;;;;;19.80;12.73;;;6.10;99.90;;;;;;5027361;28;20730;-83
2022/03/22 07:09:15;;;;;;;18.50;13.13;;;6.30;99.90;;;;;;5027986;28;20259;-82
2022/03/22 07:11:49;;;;;;;20.17;14.73;;;6.50;99.90;;;;;;5029902;28;20208;-80
2022/03/22 07:14:16;;;;;;;19.63;15.77;;;6.60;99.90;;;;;;5048271;28;20222;-80
2022/03/22 07:16:44;;;;;;;17.23;12.23;;;7.10;99.90;;;;;;5046982;28;20203;-80
2022/03/22 07:19:11;;;;;;;20.73;13.97;;;7.40;99.90;;;;;;5030950;28;20232;-80
2022/03/22 07:21:37;;;;;;;19.60;16.80;;;7.80;99.90;;;;;;5044422;28;20218;-80
2022/03/22 07:24:05;;;;;;;18.83;16.80;;;8.00;99.90;;;;;;5024068;28;20188;-80
2022/03/22 07:26:33;;;;;;;20.10;17.97;;;8.20;99.90;;;;;;5045709;28;20215;-80
2022/03/22 07:29:00;;;;;;;18.37;16.43;;;8.50;99.90;;;;;;5046654;28;20192;-81
2022/03/22 07:31:29;;;;;;;19.23;17.33;;;9.00;99.90;;;;;;5045461;28;20223;-81
2022/03/22 07:33:57;;;;;;;21.27;17.77;;;9.30;99.90;;;;;;5027285;28;20223;-80
2022/03/22 07:36:24;;;;;;;18.00;15.63;;;9.50;99.90;;;;;;5045658;28;20253;-80
2022/03/22 07:38:50;;;;;;;18.43;15.50;;;9.70;99.90;;;;;;5024348;28;20225;-81
2022/03/22 07:41:17;;;;;;;21.40;16.07;;;9.70;99.90;;;;;;5043637;28;20231;-81
2022/03/22 07:43:45;;;;;;;20.60;15.53;;;9.90;99.90;;;;;;5046102;28;20223;-81
2022/03/22 07:46:12;;;;;;;20.80;15.03;;;10.10;99.90;;;;;;5047756;28;20192;-81
2022/03/22 07:48:39;;;;;;;22.30;15.93;;;10.30;99.90;;;;;;5030995;28;20580;-81
2022/03/22 07:53:51;;;;;;;20.67;15.20;;;10.80;99.90;;;;;;5032790;28;20248;-81
2022/03/22 07:56:17;;;;;;;17.10;14.50;;;11.20;99.90;;;;;;5051399;28;20214;-82
2022/03/22 07:58:46;;;;;;;17.17;13.93;;;11.00;99.90;;;;;;5051477;28;20215;-79
2022/03/22 08:01:13;;;;;;;15.93;13.20;;;11.20;99.90;;;;;;5033895;28;20228;-80
2022/03/22 08:03:39;;;;;;;17.53;13.43;;;11.50;99.90;;;;;;5036721;28;20196;-79
2022/03/22 08:06:07;;;;;;;17.17;14.43;;;11.70;99.90;;;;;;5051103;28;20213;-81
2022/03/22 08:08:34;;;;;;;19.37;13.97;;;11.90;99.90;;;;;;5046411;28;20602;-81
2022/03/22 08:11:02;;;;;;;16.73;13.97;;;12.10;99.90;;;;;;5045885;28;20570;-79
2022/03/22 08:13:29;;;;;;;19.20;14.27;;;12.20;99.90;;;;;;5041473;28;20218;-80
2022/03/22 08:15:57;;;;;;;18.90;14.07;;;12.10;98.80;;;;;;5049135;28;20211;-81
2022/03/22 08:18:24;;;;;;;17.27;14.10;;;12.10;99.90;;;;;;5051095;28;20250;-81
2022/03/22 08:20:51;;;;;;;17.47;13.47;;;12.20;98.80;;;;;;5050180;28;20199;-81
2022/03/22 08:23:18;;;;;;;19.00;14.43;;;12.40;98.70;;;;;;5052384;28;20198;-79
2022/03/22 08:25:46;;;;;;;18.70;14.50;;;12.60;99.10;;;;;;5027483;28;20206;-80
2022/03/22 08:28:14;;;;;;;20.20;13.30;;;12.70;98.50;;;;;;5042570;28;20215;-78
2022/03/22 08:30:42;;;;;;;17.20;12.93;;;12.60;98.40;;;;;;5026290;28;20204;-80
2022/03/22 08:33:12;;;;;;;18.13;14.00;;;12.90;97.70;;;;;;5031349;28;20218;-81
2022/03/22 08:35:43;;;;;;;17.87;14.27;;;13.10;97.90;;;;;;5033560;28;20597;-81
2022/03/22 08:38:11;;;;;;;15.03;12.80;;;13.40;97.70;;;;;;5049779;28;20619;-81
2022/03/22 08:40:38;;;;;;;22.30;13.50;;;13.70;97.20;;;;;;5050142;28;20215;-81
2022/03/22 08:43:07;;;;;;;15.50;12.83;;;13.70;96.40;;;;;;5032325;28;20219;-80
2022/03/22 08:45:35;;;;;;;16.17;13.70;;;13.90;96.70;;;;;;5047028;28;20203;-80
2022/03/22 08:48:09;;;;;;;15.97;14.17;;;14.10;96.90;;;;;;5044839;28;20570;-80
2022/03/22 08:50:38;;;;;;;16.43;13.87;;;14.20;96.40;;;;;;5043206;28;20230;-81
2022/03/22 08:53:06;;;;;;;15.97;13.03;;;14.50;95.70;;;;;;5032243;28;20222;-80
2022/03/22 08:55:34;;;;;;;18.40;13.17;;;14.50;96.10;;;;;;5053133;28;20185;-81
2022/03/22 08:58:05;;;;;;;18.63;12.70;;;14.60;95.50;;;;;;5043417;28;20220;-78
2022/03/22 09:00:33;;;;;;;19.03;12.90;;;14.80;95.50;;;;;;5021285;28;20687;-78
2022/03/22 09:03:01;;;;;;;16.33;13.53;;;14.80;95.40;;;;;;5048263;28;20245;-78
2022/03/22 09:08:13;;;;;;;17.43;13.30;;;15.30;94.10;;;;;;5026733;28;20195;-79
2022/03/22 09:10:40;;;;;;;18.20;14.43;;;15.30;94.30;;;;;;5031519;28;20545;-79
2022/03/22 09:13:09;;;;;;;17.30;14.47;;;15.40;94.20;;;;;;5026215;28;20646;-78
2022/03/22 09:15:38;;;;;;;15.80;13.60;;;15.70;93.30;;;;;;5023320;28;20196;-78
2022/03/22 09:18:12;;;;;;;16.97;14.30;;;15.90;93.70;;;;;;5028952;28;20214;-78
2022/03/22 09:20:39;;;;;;;15.40;13.80;;;15.90;92.70;;;;;;5017588;28;20289;-79
2022/03/22 09:23:06;;;;;;;18.63;14.00;;;15.80;92.90;;;;;;5023250;28;20216;-78
2022/03/22 09:25:34;;;;;;;16.93;14.50;;;15.90;92.80;;;;;;5029519;28;20201;-78
2022/03/22 09:28:04;;;;;;;16.93;13.60;;;16.20;93.00;;;;;;5048102;28;20195;-78
2022/03/22 09:30:34;;;;;;;18.90;14.93;;;16.00;92.40;;;;;;5037012;28;20192;-80
2022/03/22 09:33:02;;;;;;;17.73;14.80;;;15.80;92.50;;;;;;5039005;28;20674;-82
2022/03/22 09:35:30;;;;;;;17.13;14.00;;;15.90;92.50;;;;;;5028048;28;20199;-81
2022/03/22 09:37:59;;;;;;;16.93;14.00;;;16.30;92.20;;;;;;5047393;28;20195;-81
2022/03/22 09:40:27;;;;;;;15.50;13.33;;;16.60;92.90;;;;;;5049162;28;20196;-81
2022/03/22 09:42:55;;;;;;;18.47;14.20;;;16.80;91.00;;;;;;5036711;28;20215;-80
2022/03/22 09:45:26;;;;;;;18.43;15.13;;;16.20;91.40;;;;;;5049385;28;20218;-81
2022/03/22 09:47:53;;;;;;;17.80;14.83;;;16.10;91.80;;;;;;5040493;28;20207;-81
2022/03/22 09:51:44;;;;;;;19.50;14.73;;;16.10;91.70;;;;;;5050483;28;20199;-81
2022/03/22 09:53:08;;;;;;;18.53;14.70;;;16.10;91.20;;;;;;5051513;28;20292;-81
2022/03/22 09:55:36;;;;;;;17.13;14.60;;;16.00;92.40;;;;;;5048083;28;20210;-79
2022/03/22 09:58:04;;;;;;;19.40;15.17;;;16.00;92.00;;;;;;5033684;28;20202;-80
2022/03/22 10:00:31;;;;;;;22.83;15.73;;;15.70;91.90;;;;;;5051845;28;20202;-81
2022/03/22 10:02:59;;;;;;;18.00;14.77;;;15.70;91.80;;;;;;5032788;28;20237;-81
2022/03/22 10:05:28;;;;;;;20.20;15.20;;;15.60;91.70;;;;;;5052931;28;20202;-80
2022/03/22 10:07:59;;;;;;;18.70;14.90;;;15.40;92.10;;;;;;5050532;28;20192;-83
2022/03/22 10:10:27;;;;;;;18.07;14.97;;;15.40;91.40;;;;;;5028580;28;20266;-81
2022/03/22 10:12:59;;;;;;;16.67;13.77;;;15.20;92.00;;;;;;5030123;28;20229;-81
2022/03/22 10:15:32;;;;;;;18.37;14.20;;;15.50;92.50;;;;;;5036136;28;20204;-80
2022/03/22 10:18:07;;;;;;;15.60;13.87;;;15.60;92.70;;;;;;5047102;28;20225;-80
2022/03/22 10:20:35;;;;;;;17.17;13.80;;;15.70;92.20;;;;;;5044291;28;20196;-81
2022/03/22 10:23:05;;;;;;;20.13;13.67;;;15.80;90.60;;;;;;5032806;28;20214;-81
2022/03/22 10:25:34;;;;;;;21.63;14.63;;;15.70;91.00;;;;;;5047544;28;20196;-80
2022/03/22 10:28:03;;;;;;;18.57;13.37;;;15.60;91.20;;;;;;5052809;28;20198;-82
2022/03/22 10:30:32;;;;;;;20.63;14.40;;;15.50;91.10;;;;;;5039320;28;20656;-81
2022/03/22 10:33:00;;;;;;;19.53;15.60;;;15.50;91.40;;;;;;5055108;28;20634;-82
2022/03/22 10:35:29;;;;;;;19.00;15.70;;;15.50;90.60;;;;;;5032848;28;20201;-81
2022/03/22 10:37:58;;;;;;;18.50;13.90;;;15.10;91.10;;;;;;5046198;28;20212;-81
2022/03/22 10:40:29;;;;;;;18.13;13.87;;;15.10;91.60;;;;;;5054625;28;20661;-81
2022/03/22 10:42:58;;;;;;;18.77;15.27;;;15.10;92.10;;;;;;5046227;28;20624;-79
2022/03/22 10:45:27;;;;;;;19.87;14.97;;;15.10;91.40;;;;;;5025672;28;20684;-79
2022/03/22 10:47:55;;;;;;;18.30;15.27;;;15.00;91.30;;;;;;5028447;28;20194;-80
2022/03/22 10:50:22;;;;;;;19.23;15.37;;;14.90;91.50;;;;;;5030546;28;20192;-81
2022/03/22 10:52:52;;;;;;;16.43;14.27;;;14.90;91.40;;;;;;5049795;28;20224;-80
2022/03/22 10:55:21;;;;;;;19.00;14.80;;;14.90;91.40;;;;;;5031637;28;20225;-82
2022/03/22 10:57:55;;;;;;;18.87;14.87;;;15.00;91.70;;;;;;5048042;28;20203;-80
2022/03/22 11:00:24;;;;;;;18.80;14.80;;;15.10;91.70;;;;;;5045337;28;20211;-82
2022/03/22 11:02:52;;;;;;;18.73;14.67;;;15.10;91.00;;;;;;5032825;28;20653;-80
2022/03/22 11:05:23;;;;;;;17.17;14.10;;;14.90;90.80;;;;;;5028343;28;20233;-80
2022/03/22 11:07:52;;;;;;;18.80;15.10;;;15.00;91.40;;;;;;5049199;28;20197;-80
2022/03/22 11:10:24;;;;;;;19.77;15.33;;;15.00;91.10;;;;;;5026203;28;20202;-80
2022/03/22 11:12:52;;;;;;;17.27;13.90;;;14.80;91.10;;;;;;5032402;28;20224;-82
2022/03/22 11:15:20;;;;;;;17.90;13.53;;;14.90;91.40;;;;;;5048850;28;20207;-80
2022/03/22 11:17:49;;;;;;;17.80;13.57;;;14.90;91.60;;;;;;5028523;28;20199;-80
2022/03/22 11:20:17;;;;;;;17.57;12.90;;;15.10;91.80;;;;;;5056212;28;20207;-80
2022/03/22 11:22:51;;;;;;;16.97;12.13;;;15.20;91.40;;;;;;5034088;28;20228;-81
2022/03/22 11:25:20;;;;;;;15.40;11.63;;;15.30;91.00;;;;;;5058142;28;20205;-81
2022/03/22 11:31:10;;;;;;;19.33;14.13;;;15.40;91.10;;;;;;5049578;28;20289;-80
2022/03/22 11:36:26;;;;;;;18.87;14.37;;;15.40;90.80;;;;;;5050618;28;20246;-80
2022/03/22 11:38:56;;;;;;;20.67;15.77;;;15.40;90.20;;;;;;5050462;28;20198;-82
2022/03/22 11:44:13;;;;;;;20.10;14.00;;;15.10;89.40;;;;;;5033565;28;20202;-80
2022/03/22 11:46:41;;;;;;;20.97;13.43;;;15.10;90.30;;;;;;5049643;28;20585;-80
2022/03/22 11:49:13;;;;;;;17.73;13.30;;;15.00;90.10;;;;;;5034190;28;20279;-79
2022/03/22 11:51:48;;;;;;;19.23;14.97;;;15.00;89.90;;;;;;5051252;28;20214;-80
2022/03/22 11:54:16;;;;;;;18.43;13.43;;;15.10;88.70;;;;;;5059553;28;20212;-80
2022/03/22 11:56:47;;;;;;;19.83;14.13;;;15.10;90.30;;;;;;5061671;28;20620;-80
2022/03/22 11:59:16;;;;;;;18.03;13.60;;;15.10;89.40;;;;;;5062414;28;20226;-82
2022/03/22 12:01:53;;;;;;;18.87;14.50;;;15.10;90.00;;;;;;5055232;28;20207;-81
2022/03/22 12:04:20;;;;;;;18.20;13.27;;;15.20;90.50;;;;;;5027560;28;20679;-81
2022/03/22 12:06:50;;;;;;;19.50;14.23;;;15.10;88.30;;;;;;5051741;28;20212;-80
2022/03/22 12:09:19;;;;;;;16.47;13.40;;;15.20;89.40;;;;;;5035825;28;20216;-82
2022/03/22 12:11:54;;;;;;;17.10;13.60;;;15.20;86.80;;;;;;5041280;28;20245;-82
2022/03/22 12:14:28;;;;;;;15.40;12.93;;;15.10;86.40;;;;;;5031929;28;20230;-81
2022/03/22 12:16:56;;;;;;;18.07;13.30;;;15.20;86.10;;;;;;5034720;28;20221;-82
2022/03/22 12:19:27;;;;;;;23.40;12.63;;;15.20;85.00;;;;;;5027081;28;20243;-81
2022/03/22 12:21:54;;;;;;;16.30;11.60;;;15.20;84.60;;;;;;5047188;28;20751;-81
2022/03/22 12:24:25;;;;;;;16.60;11.43;;;15.20;79.60;;;;;;5044772;28;20642;-81
2022/03/22 12:26:52;;;;;;;14.17;10.97;;;15.20;81.30;;;;;;5028208;28;20194;-82
2022/03/22 12:29:20;;;;;;;12.60;10.43;;;15.20;80.70;;;;;;5033904;28;20279;-80
2022/03/22 12:31:49;;;;;;;15.30;11.67;;;15.40;83.00;;;;;;5049919;28;20214;-79
2022/03/22 12:34:16;;;;;;;17.00;12.70;;;15.50;85.10;;;;;;5051077;28;20280;-80
2022/03/22 12:36:44;;;;;;;14.73;11.73;;;15.40;82.70;;;;;;5031694;28;20225;-82
2022/03/22 12:39:11;;;;;;;15.77;12.63;;;15.40;82.50;;;;;;5043718;28;20575;-82
2022/03/22 12:41:39;;;;;;;15.37;12.53;;;15.40;82.60;;;;;;5052364;28;20702;-81
2022/03/22 12:44:07;;;;;;;16.20;12.37;;;15.40;83.10;;;;;;5045003;28;20193;-80
2022/03/22 12:46:34;;;;;;;19.93;13.30;;;15.40;82.60;;;;;;5052325;28;20198;-82
2022/03/22 12:49:00;;;;;;;15.00;11.70;;;15.40;82.50;;;;;;5031625;28;20208;-83
2022/03/22 12:51:27;;;;;;;14.27;11.33;;;15.50;83.00;;;;;;5033992;28;20222;-81
2022/03/22 12:53:54;;;;;;;13.67;11.80;;;15.60;82.10;;;;;;5032231;28;20242;-80
2022/03/22 12:56:22;;;;;;;17.20;11.87;;;15.70;78.40;;;;;;5051529;28;20248;-81
2022/03/22 12:58:51;;;;;;;16.03;11.67;;;15.70;79.70;;;;;;5050015;28;20198;-82
2022/03/22 13:01:19;;;;;;;14.53;12.10;;;15.70;80.40;;;;;;5046621;28;20834;-82
2022/03/22 13:03:46;;;;;;;16.67;13.67;;;15.80;78.40;;;;;;5055620;28;20194;-82
2022/03/22 13:06:14;;;;;;;14.40;11.77;;;15.70;77.10;;;;;;5050893;28;20206;-82
2022/03/22 13:11:29;;;;;;;16.77;13.13;;;15.80;80.50;;;;;;5045103;28;20220;-80
2022/03/22 13:16:50;;;;;;;17.73;12.93;;;15.70;80.20;;;;;;5029462;28;20206;-78
2022/03/22 13:19:18;;;;;;;20.13;12.73;;;15.80;80.70;;;;;;5044382;28;20209;-80
2022/03/22 13:21:45;;;;;;;17.03;14.30;;;15.80;81.40;;;;;;5047154;28;20690;-81